Southtown, Indiana
Current Conditions -  °F | °C
As of 12:54 PM on Friday 19 Dec 2014 (Local Time) from KFWA Reporting Station
Broken Clouds Broken Clouds  
Wind Chill: 26°   Ceiling: 2400
Heat Index: 32°   Visibility: 10mi
Dew Point: 23°   Wind: 6mph
Humidity: 69%   Direction: 280°W
Pressure: 30.26"   Gusts: NA
Location:  41.0028°N, 85.0396°W
Report Text: KFWA 191754Z 28005KT 10SM BKN024 BKN250 00/M05 A3026 RMK AO2 SLP256 T00001050 10006 21033 58006
Loading
Personal Weather Stations






























Interactive Weather Map New forecast layout! Learn more

10-Day Weather Forecast

Advertisements
Track Severe Weather on mobile